Bookmark and Share
Track history (hours):
 

Sara Borchard

Last reported at 2014-Apr-20 17:06 UTC. Time now 2014-Apr-20 23:43 UTC.
Position N 37°48' E 009°13'.

Length 134 m; draft 7.4 m.

Type: Ship (hazmat cat A). MMSI: 304962000.

NotesDate/timePositionNaut miles runAvg speedWind from/ knotsBaromVisibWave heightAir tempDewpointWater temp
2014-Apr-20 17:06N 37°48' E 009°13'814.9
2014-Apr-20 16:33N 37°46' E 009°23'7715.4
2014-Apr-20 11:33N 37°31' E 010°59'1515.3
2014-Apr-20 10:33N 37°25' E 011°16'11216.0
2014-Apr-20 03:33N 36°42' E 013°26'1515.4
2014-Apr-20 02:33N 36°37' E 013°44'1615.8
2014-Apr-20 01:33N 36°32' E 014°03'1615.9
2014-Apr-20 00:33N 36°27' E 014°22'1616.3
2014-Apr-19 23:33N 36°22' E 014°41'1615.7
2014-Apr-19 22:33N 36°17' E 014°59'1716.6
2014-Apr-19 21:33N 36°11' E 015°19'1414.2
2014-Apr-19 20:34N 36°07' E 015°35'71216.5
2014-Apr-18 01:20N 31°34' E 028°47'1417.5
2014-Apr-18 00:33N 31°29' E 029°02'1917.5
2014-Apr-17 23:29N 31°20' E 029°22'1516.8
2014-Apr-17 22:34N 31°14' E 029°38'170 5.9
2014-Apr-16 17:33N 31°59' E 032°51'1817.8
2014-Apr-16 16:34N 31°57' E 033°12'1818.0
2014-Apr-16 15:33N 31°56' E 033°34'1818.0
2014-Apr-16 14:33N 31°55' E 033°55'1817.9
2014-Apr-16 13:33N 31°54' E 034°16'1917.1
2014-Apr-16 12:25N 31°51' E 034°38'1 1.1
2014-Apr-16 11:26N 31°50' E 034°39'0 0.0
2014-Apr-16 10:07N 31°50' E 034°39'0 0.0
2014-Apr-16 09:22N 31°50' E 034°39'0 0.0
2014-Apr-15 19:31N 31°50' E 034°39'13 1.9
2014-Apr-15 12:33N 31°54' E 034°24'8 8.6
2014-Apr-15 11:34N 31°58' E 034°15'1111.4
2014-Apr-15 10:34N 32°02' E 034°03'1111.4
2014-Apr-15 09:34N 32°07' E 033°51'1110.6
2014-Apr-15 08:34N 32°17' E 033°46'1111.4
2014-Apr-15 07:34N 32°28' E 033°43'1211.7
2014-Apr-15 06:34N 32°40' E 033°40'1211.7
2014-Apr-15 05:34N 32°51' E 033°37'2412.0
2014-Apr-15 03:34N 33°14' E 033°29'1211.7
2014-Apr-15 02:32N 33°26' E 033°26'1111.6
2014-Apr-15 01:34N 33°37' E 033°22'1211.5
2014-Apr-15 00:34N 33°48' E 033°18'1110.9
2014-Apr-14 23:33N 33°58' E 033°15'1110.7
2014-Apr-14 22:34N 34°09' E 033°12'1110.6
2014-Apr-14 21:34N 34°19' E 033°09'1111.0
2014-Apr-14 20:34N 34°30' E 033°06'1010.0
2014-Apr-14 19:34N 34°39' E 033°01'0 0.2
2014-Apr-14 17:33N 34°39' E 033°01'0 0.0
2014-Apr-14 16:32N 34°39' E 033°01'0 0.0
2014-Apr-14 14:31N 34°39' E 033°01'0 0.0
2014-Apr-14 13:31N 34°39' E 033°01'0 0.0
2014-Apr-14 11:30N 34°39' E 033°01'0 0.0
2014-Apr-14 10:30N 34°39' E 033°01'0 0.0
2014-Apr-14 09:32N 34°39' E 033°01'0 0.0
2014-Apr-14 08:32N 34°39' E 033°01'6 6.0
2014-Apr-14 07:33N 34°34' E 033°03'1313.0
2014-Apr-14 06:33N 34°32' E 032°48'1414.1
2014-Apr-14 05:32N 34°34' E 032°30'  
2014-Apr-11 10:23N 40°41' E 012°19'2017.0
2014-Apr-11 09:14N 40°55' E 011°60'9916.6
2014-Apr-11 03:15N 42°01' E 010°22'1316.7
2014-Apr-11 02:30N 42°09' E 010°09'1616.4
2014-Apr-11 01:33N 42°22' E 009°56'1717.1
2014-Apr-11 00:34N 42°38' E 009°50'1716.6
2014-Apr-10 23:34N 42°54' E 009°43'1616.3
2014-Apr-10 22:34N 43°09' E 009°36'1716.8
2014-Apr-10 21:33N 43°25' E 009°28'1716.9
2014-Apr-10 20:34N 43°41' E 009°19'1716.8
2014-Apr-10 19:34N 43°56' E 009°11'1616.5
2014-Apr-10 18:33N 44°12' E 009°02'1413.4
2014-Apr-10 17:32N 44°24' E 008°54'  

Dump ship's entire track history

sailing weather and tide predictions

Sara Borchard — V2BY8 — position and weather